Big Bear Station Historical Data
Daily Summary for January 2, 2018 Units:  English    Metric   Both
Next Day »
Daily Weekly Monthly Yearly Custom
  High: Low: Average:
Temperature: 58.6 °F 31.6 °F 41 °F
Dew Point: 22.3 °F 12.4 °F 17.5 °F
Humidity: 57% 20% 40%
Wind Speed: 3.2mph 0.0mph 0.4mph
Wind Gust: -999.0mph - -
Wind- - SSW
Pressure: 30.36 in 30.28 in -
Precipitation: 0.00 in    
Historical Graphs
 
 
Tabular Data for January 2, 2018
Time Temperature Dew Point Pressure Wind Wind Speed Wind Gust Humidity Rainfall Rate (Hourly)
00:05 32.5 °F 14.5 °F 30.33 in Calm   -999.0 mph 47% 0 in
00:36 32.0 °F 14.5 °F 30.33 in Calm   -999.0 mph 48% 0 in
00:51 31.8 °F 14.3 °F 30.33 in Calm   -999.0 mph 48% 0 in
01:21 32.4 °F 12.4 °F 30.34 in Calm   -999.0 mph 43% 0 in
01:52 32.2 °F 14.7 °F 30.33 in Calm   -999.0 mph 48% 0 in
02:07 32.4 °F 13.9 °F 30.33 in Calm   -999.0 mph 46% 0 in
02:23 32.2 °F 14.7 °F 30.33 in Calm   -999.0 mph 48% 0 in
03:08 32.4 °F 13.9 °F 30.33 in Calm   -999.0 mph 46% 0 in
03:23 32.4 °F 15.4 °F 30.33 in Calm   -999.0 mph 49% 0 in
03:54 32.5 °F 16.8 °F 30.32 in Calm   -999.0 mph 52% 0 in
04:09 32.7 °F 15.6 °F 30.32 in Calm   -999.0 mph 49% 0 in
04:40 32.4 °F 17.6 °F 30.32 in Calm   -999.0 mph 54% 0 in
04:55 32.2 °F 18.7 °F 30.32 in Calm   -999.0 mph 57% 0 in
05:10 32.4 °F 17.6 °F 30.32 in Calm   -999.0 mph 54% 0 in
05:40 32.5 °F 15.4 °F 30.32 in Calm   -999.0 mph 49% 0 in
05:56 32.5 °F 16.8 °F 30.33 in Calm   -999.0 mph 52% 0 in
06:11 32.4 °F 18.0 °F 30.33 in Calm   -999.0 mph 55% 0 in
06:26 32.9 °F 18.9 °F 30.34 in Calm   -999.0 mph 56% 0 in
06:41 32.5 °F 17.7 °F 30.34 in Calm   -999.0 mph 54% 0 in
07:12 33.1 °F 16.0 °F 30.33 in Calm   -999.0 mph 49% 0 in
07:42 32.9 °F 15.8 °F 30.34 in Calm   -999.0 mph 49% 0 in
07:57 33.8 °F 18.0 °F 30.34 in Calm   -999.0 mph 52% 0 in
08:28 35.6 °F 20.1 °F 30.34 in Calm   -999.0 mph 53% 0 in
08:43 37.0 °F 19.6 °F 30.35 in Calm   -999.0 mph 49% 0 in
08:58 38.5 °F 19.0 °F 30.35 in Calm   -999.0 mph 45% 0 in
09:13 40.1 °F 18.8 °F 30.35 in Calm   -999.0 mph 42% 0 in
09:28 42.1 °F 22.3 °F 30.35 in WNW 1.1 mph -999.0 mph 45% 0 in
09:44 42.1 °F 22.3 °F 30.36 in Calm   -999.0 mph 45% 0 in
10:29 48.6 °F 14.3 °F 30.35 in Calm   -999.0 mph 25% 0 in
10:45 54.1 °F 15.0 °F 30.34 in ESE 2.2 mph -999.0 mph 21% 0 in
11:00 54.9 °F 14.5 °F 30.34 in Calm   -999.0 mph 20% 0 in
11:15 56.1 °F 18.8 °F 30.33 in Calm   -999.0 mph 23% 0 in
11:45 56.7 °F 20.3 °F 30.32 in North 2.7 mph -999.0 mph 24% 0 in
12:16 58.6 °F 19.8 °F 30.31 in NE 2.7 mph -999.0 mph 22% 0 in
12:32 57.4 °F 20.9 °F 30.30 in Calm   -999.0 mph 24% 0 in
12:47 58.6 °F 20.9 °F 30.30 in NNW 2.2 mph -999.0 mph 23% 0 in
13:02 57.9 °F 21.3 °F 30.30 in East 3.2 mph -999.0 mph 24% 0 in
13:33 56.1 °F 19.8 °F 30.29 in NW 3.2 mph -999.0 mph 24% 0 in
13:48 55.8 °F 20.5 °F 30.29 in ESE 1.1 mph -999.0 mph 25% 0 in
14:03 55.4 °F 21.9 °F 30.28 in Calm   -999.0 mph 27% 0 in
14:19 55.2 °F 21.8 °F 30.28 in NE 1.1 mph -999.0 mph 27% 0 in
14:34 54.9 °F 21.5 °F 30.29 in Calm   -999.0 mph 27% 0 in
14:49 54.7 °F 21.3 °F 30.29 in NW 2.2 mph -999.0 mph 27% 0 in
15:04 54.0 °F 21.6 °F 30.28 in NNE 1.1 mph -999.0 mph 28% 0 in
15:19 53.4 °F 21.1 °F 30.28 in North 2.7 mph -999.0 mph 28% 0 in
15:35 52.9 °F 21.5 °F 30.28 in NW 2.2 mph -999.0 mph 29% 0 in
16:05 51.4 °F 21.8 °F 30.29 in Calm   -999.0 mph 31% 0 in
16:20 50.2 °F 21.5 °F 30.28 in Calm   -999.0 mph 32% 0 in
16:51 47.8 °F 20.1 °F 30.28 in Calm   -999.0 mph 33% 0 in
17:06 46.9 °F 18.6 °F 30.29 in Calm   -999.0 mph 32% 0 in
17:21 45.7 °F 17.5 °F 30.30 in Calm   -999.0 mph 32% 0 in
17:52 43.5 °F 17.0 °F 30.29 in Calm   -999.0 mph 34% 0 in
18:22 41.9 °F 16.9 °F 30.30 in Calm   -999.0 mph 36% 0 in
18:37 41.2 °F 16.2 °F 30.32 in Calm   -999.0 mph 36% 0 in
18:52 40.6 °F 16.3 °F 30.32 in Calm   -999.0 mph 37% 0 in
19:08 39.9 °F 16.3 °F 30.32 in Calm   -999.0 mph 38% 0 in
19:23 39.2 °F 16.3 °F 30.33 in Calm   -999.0 mph 39% 0 in
19:38 38.8 °F 16.5 °F 30.33 in Calm   -999.0 mph 40% 0 in
19:53 38.5 °F 16.8 °F 30.33 in Calm   -999.0 mph 41% 0 in
20:08 37.9 °F 16.3 °F 30.33 in Calm   -999.0 mph 41% 0 in
20:24 37.2 °F 16.7 °F 30.33 in Calm   -999.0 mph 43% 0 in
20:39 37.0 °F 17.1 °F 30.32 in Calm   -999.0 mph 44% 0 in
20:54 37.0 °F 16.6 °F 30.32 in Calm   -999.0 mph 43% 0 in
21:09 36.5 °F 15.6 °F 30.32 in Calm   -999.0 mph 42% 0 in
21:40 35.6 °F 14.7 °F 30.32 in Calm   -999.0 mph 42% 0 in
21:55 35.1 °F 14.8 °F 30.33 in Calm   -999.0 mph 43% 0 in
22:10 34.7 °F 14.5 °F 30.32 in Calm   -999.0 mph 43% 0 in
22:25 34.5 °F 14.3 °F 30.32 in Calm   -999.0 mph 43% 0 in
22:41 33.6 °F 14.0 °F 30.33 in Calm   -999.0 mph 44% 0 in
22:56 33.1 °F 14.5 °F 30.32 in Calm   -999.0 mph 46% 0 in
23:11 32.5 °F 14.0 °F 30.32 in Calm   -999.0 mph 46% 0 in
23:26 32.2 °F 15.6 °F 30.32 in Calm   -999.0 mph 50% 0 in
23:41 32.2 °F 16.1 °F 30.32 in Calm   -999.0 mph 51% 0 in
23:57 31.6 °F 17.3 °F 30.32 in Calm   -999.0 mph 55% 0 in
Big Bear CA Weather